createdAt,value
2022-12-19T00:00:29.343Z,1.49
2022-12-19T00:01:29.379Z,1.49
2022-12-19T00:02:29.410Z,1.52
2022-12-19T00:03:29.463Z,1.52
2022-12-19T00:04:29.312Z,1.52
2022-12-19T00:05:29.316Z,1.53
2022-12-19T00:06:29.334Z,1.55
2022-12-19T00:07:29.263Z,1.55
2022-12-19T00:08:29.282Z,1.56
2022-12-19T00:09:29.233Z,1.56
2022-12-19T00:10:34.209Z,1.57
2022-12-19T00:11:29.276Z,1.57
2022-12-19T00:12:29.216Z,1.59
2022-12-19T00:13:29.206Z,1.60
2022-12-19T00:14:29.193Z,1.59
2022-12-19T00:15:29.212Z,1.60
2022-12-19T00:16:29.229Z,1.60
2022-12-19T00:17:29.204Z,1.62
2022-12-19T00:18:29.161Z,1.62
2022-12-19T00:19:29.137Z,1.63
2022-12-19T00:20:29.121Z,1.62
2022-12-19T00:21:29.134Z,1.63
2022-12-19T00:22:29.100Z,1.64
2022-12-19T00:23:29.142Z,1.64
2022-12-19T00:24:29.089Z,1.66
2022-12-19T00:25:29.070Z,1.67
2022-12-19T00:26:29.060Z,1.67
2022-12-19T00:27:29.050Z,1.67
2022-12-19T00:28:29.047Z,1.69
2022-12-19T00:29:29.087Z,1.69
2022-12-19T00:30:29.026Z,1.71
2022-12-19T00:31:29.067Z,1.71
2022-12-19T00:32:29.005Z,1.73
2022-12-19T00:33:28.997Z,1.73
2022-12-19T00:34:29.028Z,1.73
2022-12-19T00:35:28.967Z,1.74
2022-12-19T00:36:28.968Z,1.74
2022-12-19T00:37:28.958Z,1.77
2022-12-19T00:38:28.936Z,1.77
2022-12-19T00:39:28.929Z,1.78
2022-12-19T00:40:28.948Z,1.80
2022-12-19T00:41:28.917Z,1.81
2022-12-19T00:42:28.905Z,1.82
2022-12-19T00:43:28.888Z,1.82
2022-12-19T00:44:29.127Z,1.84
2022-12-19T00:45:29.199Z,1.85
2022-12-19T00:46:28.856Z,1.84
2022-12-19T00:47:28.843Z,1.85
2022-12-19T00:48:28.829Z,1.85
2022-12-19T00:49:28.829Z,1.84
2022-12-19T00:50:31.104Z,1.85
2022-12-19T00:51:28.814Z,1.87
2022-12-19T00:52:28.795Z,1.89
2022-12-19T00:53:28.775Z,1.89
2022-12-19T00:54:28.833Z,1.91
2022-12-19T00:55:28.756Z,1.91
2022-12-19T00:56:28.746Z,1.91
2022-12-19T00:57:28.734Z,1.91
2022-12-19T00:58:28.754Z,1.91
2022-12-19T00:59:28.714Z,1.92
2022-12-19T01:00:28.737Z,1.92
2022-12-19T01:01:28.849Z,1.92
2022-12-19T01:02:28.829Z,1.93
2022-12-19T01:03:28.725Z,1.92
2022-12-19T01:04:29.736Z,1.93
2022-12-19T01:05:28.665Z,1.93
2022-12-19T01:06:28.684Z,1.95
2022-12-19T01:07:28.632Z,1.97
2022-12-19T01:08:28.623Z,1.97
2022-12-19T01:09:28.613Z,1.97
2022-12-19T01:10:28.611Z,2.00
2022-12-19T01:11:28.583Z,2.00
2022-12-19T01:12:28.620Z,2.01
2022-12-19T01:13:28.572Z,2.01
2022-12-19T01:14:28.555Z,2.04
2022-12-19T01:15:28.549Z,2.06
2022-12-19T01:16:28.575Z,2.03
2022-12-19T01:17:28.521Z,2.04
2022-12-19T01:18:28.622Z,2.06
2022-12-19T01:19:28.502Z,2.07
2022-12-19T01:20:30.009Z,2.11
2022-12-19T01:21:28.488Z,2.10
2022-12-19T01:22:28.490Z,2.12
2022-12-19T01:23:28.460Z,2.12
2022-12-19T01:24:28.501Z,2.14
2022-12-19T01:25:28.444Z,2.15
2022-12-19T01:26:28.440Z,2.15
2022-12-19T01:27:28.441Z,2.17
2022-12-19T01:28:28.422Z,2.17
2022-12-19T01:29:28.414Z,2.18
2022-12-19T01:30:29.159Z,2.18
2022-12-19T01:31:28.442Z,2.19
2022-12-19T01:32:28.380Z,2.21
2022-12-19T01:33:28.400Z,2.21
2022-12-19T01:34:28.359Z,2.21
2022-12-19T01:35:28.344Z,2.24
2022-12-19T01:36:28.336Z,2.24
2022-12-19T01:37:28.321Z,2.25
2022-12-19T01:38:28.357Z,2.28
2022-12-19T01:39:28.307Z,2.28
2022-12-19T01:40:28.290Z,2.29
2022-12-19T01:41:28.336Z,2.32
2022-12-19T01:42:28.268Z,2.32
2022-12-19T01:43:28.301Z,2.32
2022-12-19T01:44:28.285Z,2.33
2022-12-19T01:45:33.846Z,2.35
2022-12-19T01:46:29.277Z,2.35
2022-12-19T01:47:28.217Z,2.36
2022-12-19T01:48:28.208Z,2.36
2022-12-19T01:49:28.249Z,2.36
2022-12-19T01:50:28.188Z,2.37
2022-12-19T01:51:28.208Z,2.42
2022-12-19T01:52:28.166Z,2.42
2022-12-19T01:53:28.147Z,2.43
2022-12-19T01:54:28.146Z,2.43
2022-12-19T01:55:28.125Z,2.47
2022-12-19T01:56:28.103Z,2.45
2022-12-19T01:57:28.261Z,2.47
2022-12-19T01:58:28.125Z,2.47
2022-12-19T01:59:28.055Z,2.48
2022-12-19T02:00:28.052Z,2.51
2022-12-19T02:01:28.257Z,2.53
2022-12-19T02:02:28.185Z,2.55
2022-12-19T02:03:28.028Z,2.57
2022-12-19T02:04:32.704Z,2.60
2022-12-19T02:05:28.004Z,2.61
2022-12-19T02:06:28.020Z,2.61
2022-12-19T02:07:28.017Z,2.66
2022-12-19T02:08:27.963Z,2.68
2022-12-19T02:09:27.962Z,2.69
2022-12-19T02:10:27.999Z,2.69
2022-12-19T02:11:27.933Z,2.71
2022-12-19T02:12:27.924Z,2.71
2022-12-19T02:13:27.974Z,2.72
2022-12-19T02:14:27.907Z,2.75
2022-12-19T02:15:27.894Z,2.76
2022-12-19T02:16:30.296Z,2.76
2022-12-19T02:17:27.868Z,2.76
2022-12-19T02:18:27.869Z,2.79
2022-12-19T02:19:27.882Z,2.81
2022-12-19T02:20:27.863Z,2.79
2022-12-19T02:21:27.864Z,2.81
2022-12-19T02:22:27.832Z,2.82
2022-12-19T02:23:27.804Z,2.81
2022-12-19T02:24:27.806Z,2.82
2022-12-19T02:25:27.787Z,2.81
2022-12-19T02:26:27.797Z,2.82
2022-12-19T02:27:27.813Z,2.82
2022-12-19T02:28:27.758Z,2.82
2022-12-19T02:29:27.749Z,2.82
2022-12-19T02:30:27.770Z,2.82
2022-12-19T02:31:27.761Z,2.84
2022-12-19T02:32:27.732Z,2.86
2022-12-19T02:33:27.721Z,2.87
2022-12-19T02:34:27.703Z,2.87
2022-12-19T02:35:27.724Z,2.89
2022-12-19T02:36:27.685Z,2.89
2022-12-19T02:37:27.682Z,2.91
2022-12-19T02:38:27.669Z,2.91
2022-12-19T02:39:29.608Z,2.91
2022-12-19T02:40:27.653Z,2.93
2022-12-19T02:41:27.703Z,2.93
2022-12-19T02:42:27.624Z,2.93
2022-12-19T02:43:27.615Z,2.96
2022-12-19T02:44:27.607Z,2.94
2022-12-19T02:45:28.923Z,2.97
2022-12-19T02:46:27.693Z,2.96
2022-12-19T02:47:27.573Z,2.97
2022-12-19T02:48:27.586Z,2.97
2022-12-19T02:49:30.578Z,2.97
2022-12-19T02:50:27.560Z,2.97
2022-12-19T02:51:27.600Z,2.99
2022-12-19T02:52:27.533Z,2.97
2022-12-19T02:53:27.516Z,3.00
2022-12-19T02:54:27.511Z,3.02
2022-12-19T02:55:27.510Z,3.04
2022-12-19T02:56:27.485Z,3.04
2022-12-19T02:57:28.275Z,3.04
2022-12-19T02:58:27.472Z,3.04
2022-12-19T02:59:27.470Z,3.07
2022-12-19T03:00:27.443Z,3.08
2022-12-19T03:01:27.514Z,3.08
2022-12-19T03:02:27.687Z,3.07
2022-12-19T03:03:27.450Z,3.08
2022-12-19T03:04:27.409Z,3.09
2022-12-19T03:05:27.385Z,3.11
2022-12-19T03:06:27.384Z,3.12
2022-12-19T03:07:27.370Z,3.14
2022-12-19T03:08:27.399Z,3.14
2022-12-19T03:09:27.395Z,3.14
2022-12-19T03:10:27.344Z,3.14
2022-12-19T03:11:27.334Z,3.14
2022-12-19T03:12:27.331Z,3.14
2022-12-19T03:13:27.421Z,3.15
2022-12-19T03:14:27.307Z,3.17
2022-12-19T03:15:27.293Z,3.18
2022-12-19T03:16:27.365Z,3.22
2022-12-19T03:17:27.267Z,3.22
2022-12-19T03:18:27.317Z,3.20
2022-12-19T03:19:27.245Z,3.23
2022-12-19T03:20:27.268Z,3.25
2022-12-19T03:21:27.284Z,3.27
2022-12-19T03:22:27.224Z,3.26
2022-12-19T03:23:27.237Z,3.27
2022-12-19T03:24:27.208Z,3.30
2022-12-19T03:25:27.195Z,3.32
2022-12-19T03:26:27.223Z,3.33
2022-12-19T03:27:27.167Z,3.35
2022-12-19T03:28:27.217Z,3.36
2022-12-19T03:29:27.158Z,3.42
2022-12-19T03:30:27.255Z,3.45
2022-12-19T03:31:27.158Z,3.48
2022-12-19T03:32:27.128Z,3.49
2022-12-19T03:33:27.153Z,3.51
2022-12-19T03:34:27.120Z,3.52
2022-12-19T03:35:27.109Z,3.51
2022-12-19T03:36:27.089Z,3.54
2022-12-19T03:37:27.078Z,3.59
2022-12-19T03:38:27.119Z,3.55
2022-12-19T03:39:27.089Z,3.59
2022-12-19T03:40:27.039Z,3.60
2022-12-19T03:41:27.029Z,3.60
2022-12-19T03:42:27.030Z,3.63
2022-12-19T03:43:27.009Z,3.63
2022-12-19T03:44:27.153Z,3.64
2022-12-19T03:45:27.022Z,3.62
2022-12-19T03:46:27.009Z,3.64
2022-12-19T03:47:26.970Z,3.64
2022-12-19T03:48:26.999Z,3.64
2022-12-19T03:49:26.940Z,3.66
2022-12-19T03:50:27.011Z,3.64
2022-12-19T03:51:26.911Z,3.63
2022-12-19T03:52:26.916Z,3.64
2022-12-19T03:53:26.921Z,3.67
2022-12-19T03:54:26.897Z,3.67
2022-12-19T03:55:26.923Z,3.67
2022-12-19T03:56:26.882Z,3.67
2022-12-19T03:57:26.859Z,3.67
2022-12-19T03:58:26.839Z,3.67
2022-12-19T03:59:26.852Z,3.69
2022-12-19T04:00:26.831Z,3.70
2022-12-19T04:01:26.938Z,3.72
2022-12-19T04:02:26.965Z,3.72
2022-12-19T04:03:26.907Z,3.72
2022-12-19T04:04:26.803Z,3.72
2022-12-19T04:05:26.791Z,3.73
2022-12-19T04:06:26.781Z,3.76
2022-12-19T04:07:26.771Z,3.78
2022-12-19T04:08:26.797Z,3.81
2022-12-19T04:09:26.820Z,3.82
2022-12-19T04:10:26.741Z,3.84
2022-12-19T04:11:26.731Z,3.87
2022-12-19T04:12:26.731Z,3.88
2022-12-19T04:13:26.762Z,3.92
2022-12-19T04:15:36.739Z,3.99
2022-12-19T04:16:36.657Z,3.99
2022-12-19T04:17:36.648Z,3.99
2022-12-19T04:18:36.674Z,4.00
2022-12-19T04:19:42.344Z,4.02
2022-12-19T04:20:37.618Z,4.02
2022-12-19T04:21:36.613Z,4.02
2022-12-19T04:22:36.624Z,4.02
2022-12-19T04:23:36.598Z,4.05
2022-12-19T04:24:36.596Z,4.06
2022-12-19T04:25:36.572Z,4.06
2022-12-19T04:26:36.546Z,4.09
2022-12-19T04:27:36.548Z,4.08
2022-12-19T04:28:36.595Z,4.09
2022-12-19T04:29:36.525Z,4.09
2022-12-19T04:30:37.015Z,4.09
2022-12-19T04:31:36.574Z,4.12
2022-12-19T04:32:36.488Z,4.13
2022-12-19T04:33:36.507Z,4.12
2022-12-19T04:34:40.177Z,4.13
2022-12-19T04:35:38.300Z,4.13
2022-12-19T04:36:36.449Z,4.13
2022-12-19T04:37:36.447Z,4.13
2022-12-19T04:38:36.425Z,4.13
2022-12-19T04:39:36.437Z,4.12
2022-12-19T04:40:40.947Z,4.12
2022-12-19T04:41:37.415Z,4.12
2022-12-19T04:42:36.395Z,4.16
2022-12-19T04:43:36.374Z,4.17
2022-12-19T04:44:36.370Z,4.18
2022-12-19T04:45:36.652Z,4.18
2022-12-19T04:46:36.485Z,4.21
2022-12-19T04:47:36.373Z,4.26
2022-12-19T04:48:36.321Z,4.28
2022-12-19T04:49:36.309Z,4.34
2022-12-19T04:50:36.308Z,4.39
2022-12-19T04:51:36.324Z,4.39
2022-12-19T04:52:36.277Z,4.42
2022-12-19T04:53:36.270Z,4.43
2022-12-19T04:54:36.261Z,4.45
2022-12-19T04:55:36.262Z,4.45
2022-12-19T04:56:36.271Z,4.48
2022-12-19T04:57:36.228Z,4.48
2022-12-19T04:58:36.219Z,4.51
2022-12-19T04:59:36.211Z,4.51
2022-12-19T05:00:36.199Z,4.54
2022-12-19T05:01:36.364Z,4.57
2022-12-19T05:02:36.337Z,4.57
2022-12-19T05:03:36.217Z,4.60
2022-12-19T05:04:36.198Z,4.59
2022-12-19T05:05:36.167Z,4.59
2022-12-19T05:06:36.132Z,4.57
2022-12-19T05:07:36.157Z,4.57
2022-12-19T05:08:36.113Z,4.57
2022-12-19T05:09:36.109Z,4.57
2022-12-19T05:10:36.178Z,4.60
2022-12-19T05:11:36.107Z,4.60
2022-12-19T05:12:36.068Z,4.61
2022-12-19T05:13:36.060Z,4.61
2022-12-19T05:14:36.047Z,4.61
2022-12-19T05:15:36.098Z,4.60
2022-12-19T05:16:36.023Z,4.60
2022-12-19T05:17:37.189Z,4.59
2022-12-19T05:18:36.018Z,4.59
2022-12-19T05:19:35.995Z,4.60
2022-12-19T05:20:35.967Z,4.60
2022-12-19T05:21:35.988Z,4.60
2022-12-19T05:22:35.977Z,4.60
2022-12-19T05:23:35.955Z,4.57
2022-12-19T05:24:35.936Z,4.59
2022-12-19T05:25:35.938Z,4.60
2022-12-19T05:26:35.917Z,4.61
2022-12-19T05:27:35.966Z,4.61
2022-12-19T05:28:35.893Z,4.63
2022-12-19T05:29:35.883Z,4.64
2022-12-19T05:30:35.864Z,4.63
2022-12-19T05:31:35.935Z,4.64
2022-12-19T05:32:35.866Z,4.66
2022-12-19T05:33:35.924Z,4.67
2022-12-19T05:34:35.827Z,4.71
2022-12-19T05:35:35.827Z,4.78
2022-12-19T05:36:35.800Z,4.78
2022-12-19T05:37:35.916Z,4.78
2022-12-19T05:38:35.784Z,4.77
2022-12-19T05:39:35.811Z,4.78
2022-12-19T05:40:35.758Z,4.79
2022-12-19T05:41:35.752Z,4.82
2022-12-19T05:42:35.772Z,4.82
2022-12-19T05:43:35.769Z,4.82
2022-12-19T05:44:35.711Z,4.83
2022-12-19T05:45:35.774Z,4.82
2022-12-19T05:46:35.755Z,4.86
2022-12-19T05:47:37.957Z,4.86
2022-12-19T05:48:35.693Z,4.88
2022-12-19T05:49:35.663Z,4.88
2022-12-19T05:50:35.652Z,4.83
2022-12-19T05:51:35.653Z,4.83
2022-12-19T05:52:35.620Z,4.83
2022-12-19T05:53:35.797Z,4.85
2022-12-19T05:54:35.620Z,4.83
2022-12-19T05:55:35.593Z,4.83
2022-12-19T05:56:35.608Z,4.83
2022-12-19T05:57:35.570Z,4.83
2022-12-19T05:58:35.572Z,4.83
2022-12-19T05:59:35.607Z,4.85
2022-12-19T06:00:35.585Z,4.86
2022-12-19T06:01:35.687Z,4.85
2022-12-19T06:02:35.761Z,4.91
2022-12-19T06:03:35.649Z,4.91
2022-12-19T06:04:35.543Z,4.91
2022-12-19T06:05:35.535Z,4.91
2022-12-19T06:06:35.483Z,4.91
2022-12-19T06:07:38.712Z,4.93
2022-12-19T06:08:35.464Z,4.93
2022-12-19T06:09:35.538Z,4.93
2022-12-19T06:10:35.438Z,4.94
2022-12-19T06:11:35.484Z,4.96
2022-12-19T06:12:35.416Z,4.94
2022-12-19T06:13:35.406Z,4.94
2022-12-19T06:14:35.418Z,4.97
2022-12-19T06:15:35.422Z,5.00
2022-12-19T06:16:35.402Z,4.98
2022-12-19T06:17:35.374Z,5.00
2022-12-19T06:18:37.402Z,5.00
2022-12-19T06:19:35.377Z,5.03
2022-12-19T06:20:35.765Z,5.03
2022-12-19T06:21:35.319Z,5.03
2022-12-19T06:22:35.304Z,5.06
2022-12-19T06:23:35.299Z,5.09
2022-12-19T06:24:35.367Z,5.12
2022-12-19T06:25:35.274Z,5.15
2022-12-19T06:26:35.260Z,5.15
2022-12-19T06:27:35.254Z,5.14
2022-12-19T06:28:35.237Z,5.14
2022-12-19T06:29:35.255Z,5.14
2022-12-19T06:30:35.342Z,5.15
2022-12-19T06:31:35.280Z,5.18
2022-12-19T06:32:38.125Z,5.22
2022-12-19T06:33:35.849Z,5.24
2022-12-19T06:35:05.331Z,5.25
2022-12-19T06:35:36.181Z,5.27
2022-12-19T06:36:35.158Z,5.27
2022-12-19T06:37:38.964Z,5.27
2022-12-19T06:38:35.127Z,5.32
2022-12-19T06:39:35.168Z,5.34
2022-12-19T06:40:35.123Z,5.33
2022-12-19T06:41:35.144Z,5.33
2022-12-19T06:42:35.092Z,5.33
2022-12-19T06:43:35.077Z,5.33
2022-12-19T06:44:35.123Z,5.34
2022-12-19T06:45:35.111Z,5.36
2022-12-19T06:46:37.531Z,5.36
2022-12-19T06:47:35.037Z,5.36
2022-12-19T06:48:35.021Z,5.37
2022-12-19T06:49:35.089Z,5.41
2022-12-19T06:50:35.017Z,5.43
2022-12-19T06:51:35.020Z,5.44
2022-12-19T06:52:35.039Z,5.44
2022-12-19T06:53:34.976Z,5.47
2022-12-19T06:54:34.949Z,5.44
2022-12-19T06:55:34.953Z,5.47
2022-12-19T06:56:34.970Z,5.48
2022-12-19T06:57:34.980Z,5.51
2022-12-19T06:58:34.953Z,5.52
2022-12-19T06:59:34.954Z,5.52
2022-12-19T07:00:34.980Z,5.52
2022-12-19T07:01:35.026Z,5.52
2022-12-19T07:02:34.974Z,5.52
2022-12-19T07:03:34.875Z,5.54
2022-12-19T07:04:34.866Z,5.54
2022-12-19T07:05:34.877Z,5.58
2022-12-19T07:06:34.826Z,5.55
2022-12-19T07:07:34.869Z,5.57
2022-12-19T07:08:34.807Z,5.57
2022-12-19T07:09:34.807Z,5.57
2022-12-19T07:10:34.798Z,5.57
2022-12-19T07:11:34.768Z,5.59
2022-12-19T07:12:34.768Z,5.59
2022-12-19T07:13:34.793Z,5.59
2022-12-19T07:14:34.780Z,5.59
2022-12-19T07:15:34.729Z,5.62
2022-12-19T07:16:34.752Z,5.62
2022-12-19T07:17:34.711Z,5.65
2022-12-19T07:18:34.694Z,5.67
2022-12-19T07:19:36.535Z,5.67
2022-12-19T07:20:34.755Z,5.66
2022-12-19T07:21:34.673Z,5.67
2022-12-19T07:22:34.663Z,5.67
2022-12-19T07:23:34.646Z,5.70
2022-12-19T07:24:34.648Z,5.70
2022-12-19T07:25:34.731Z,5.73
2022-12-19T07:26:34.605Z,5.77
2022-12-19T07:27:36.130Z,5.77
2022-12-19T07:28:34.596Z,5.79
2022-12-19T07:29:34.579Z,5.79
2022-12-19T07:30:34.600Z,5.79
2022-12-19T07:31:34.643Z,5.82
2022-12-19T07:32:34.564Z,5.82
2022-12-19T07:33:34.542Z,5.85
2022-12-19T07:34:34.662Z,5.88
2022-12-19T07:35:34.503Z,5.91
2022-12-19T07:36:34.680Z,5.95
2022-12-19T07:37:34.509Z,6.03
2022-12-19T07:38:34.483Z,6.05
2022-12-19T07:39:34.471Z,6.06
2022-12-19T07:40:38.348Z,6.02
2022-12-19T07:41:34.450Z,6.03
2022-12-19T07:42:34.439Z,6.02
2022-12-19T07:43:34.423Z,6.00
2022-12-19T07:44:34.463Z,5.98
2022-12-19T07:45:34.522Z,5.98
2022-12-19T07:46:34.402Z,5.97
2022-12-19T07:47:34.398Z,5.97
2022-12-19T07:48:34.659Z,5.98
2022-12-19T07:49:37.546Z,5.98
2022-12-19T07:50:34.359Z,6.00
2022-12-19T07:51:34.338Z,6.02
2022-12-19T07:52:34.330Z,6.02
2022-12-19T07:53:34.319Z,6.02
2022-12-19T07:54:34.313Z,6.02
2022-12-19T07:55:34.329Z,6.02
2022-12-19T07:56:34.555Z,6.02
2022-12-19T07:57:34.298Z,6.00
2022-12-19T07:58:34.289Z,6.03
2022-12-19T07:59:38.973Z,6.02
2022-12-19T08:00:35.259Z,6.03
2022-12-19T08:01:34.377Z,6.03
2022-12-19T08:02:34.414Z,6.06
2022-12-19T08:03:34.218Z,6.08
2022-12-19T08:04:34.197Z,6.11
2022-12-19T08:05:34.179Z,6.11
2022-12-19T08:06:40.647Z,6.11
2022-12-19T08:07:35.182Z,6.09
2022-12-19T08:08:34.169Z,6.08
2022-12-19T08:09:34.167Z,6.11
2022-12-19T08:10:34.138Z,6.11
2022-12-19T08:11:34.347Z,6.13
2022-12-19T08:12:34.160Z,6.13
2022-12-19T08:13:39.677Z,6.13
2022-12-19T08:14:35.131Z,6.13
2022-12-19T08:15:34.071Z,6.16
2022-12-19T08:16:49.253Z,6.18
2022-12-19T08:17:35.109Z,6.19
2022-12-19T08:18:34.050Z,6.19
2022-12-19T08:19:34.055Z,6.21
2022-12-19T08:20:34.031Z,6.21
2022-12-19T08:21:34.037Z,6.24
2022-12-19T08:22:34.057Z,6.27
2022-12-19T08:23:33.995Z,6.27
2022-12-19T08:24:34.001Z,6.27
2022-12-19T08:25:34.008Z,6.27
2022-12-19T08:26:39.358Z,6.27
2022-12-19T08:27:34.968Z,6.30
2022-12-19T08:28:33.945Z,6.27
2022-12-19T08:29:33.917Z,6.28
2022-12-19T08:30:33.961Z,6.28
2022-12-19T08:31:33.924Z,6.28
2022-12-19T08:32:33.916Z,6.30
2022-12-19T08:33:33.920Z,6.32
2022-12-19T08:34:33.884Z,6.31
2022-12-19T08:35:33.880Z,6.32
2022-12-19T08:36:33.899Z,6.37
2022-12-19T08:37:33.857Z,6.38
2022-12-19T08:38:33.845Z,6.38
2022-12-19T08:39:35.913Z,6.37
2022-12-19T08:40:33.814Z,6.37
2022-12-19T08:41:33.804Z,6.38
2022-12-19T08:42:33.861Z,6.38
2022-12-19T08:43:33.810Z,6.38
2022-12-19T08:44:33.782Z,6.40
2022-12-19T08:45:33.754Z,6.40
2022-12-19T08:46:33.787Z,6.40
2022-12-19T08:47:33.743Z,6.40
2022-12-19T08:48:33.774Z,6.38
2022-12-19T08:49:33.723Z,6.38
2022-12-19T08:50:33.764Z,6.37
2022-12-19T08:51:33.695Z,6.37
2022-12-19T08:52:33.765Z,6.34
2022-12-19T08:53:33.665Z,6.34
2022-12-19T08:54:33.665Z,6.35
2022-12-19T08:55:33.759Z,6.35
2022-12-19T08:56:33.646Z,6.37
2022-12-19T08:57:33.657Z,6.38
2022-12-19T08:58:33.626Z,6.37
2022-12-19T08:59:33.621Z,6.37
2022-12-19T09:00:33.605Z,6.37
2022-12-19T09:01:33.674Z,6.38
2022-12-19T09:02:33.801Z,6.37
2022-12-19T09:03:38.274Z,6.38
2022-12-19T09:05:58.786Z,6.38
2022-12-19T09:06:01.493Z,6.38
2022-12-19T09:06:34.640Z,6.40
2022-12-19T09:07:33.513Z,6.40
2022-12-19T09:08:34.515Z,6.42
2022-12-19T09:09:33.495Z,6.42
2022-12-19T09:10:33.517Z,6.42
2022-12-19T09:11:33.475Z,6.43
2022-12-19T09:12:33.523Z,6.43
2022-12-19T09:13:33.475Z,6.45
2022-12-19T09:14:33.463Z,6.46
2022-12-19T09:15:33.479Z,6.53
2022-12-19T09:16:33.471Z,6.56
2022-12-19T09:17:33.424Z,6.63
2022-12-19T09:18:36.655Z,6.64
2022-12-19T09:19:33.436Z,6.71
2022-12-19T09:20:33.386Z,6.71
2022-12-19T09:21:33.373Z,6.71
2022-12-19T09:22:33.369Z,6.70
2022-12-19T09:23:33.355Z,6.67
2022-12-19T09:24:33.336Z,6.67
2022-12-19T09:25:33.379Z,6.65
2022-12-19T09:26:33.832Z,6.65
2022-12-19T09:27:53.635Z,6.65
2022-12-19T09:28:34.303Z,6.65
2022-12-19T09:29:35.598Z,6.67
2022-12-19T09:30:33.344Z,6.67
2022-12-19T09:31:33.308Z,6.67
2022-12-19T09:32:33.312Z,6.67
2022-12-19T09:33:37.993Z,6.67
2022-12-19T09:34:38.498Z,6.67
2022-12-19T09:35:33.225Z,6.68
2022-12-19T09:36:33.255Z,6.68
2022-12-19T09:37:33.213Z,6.70
2022-12-19T09:38:33.194Z,6.73
2022-12-19T09:39:34.194Z,6.73
2022-12-19T09:40:33.169Z,6.74
2022-12-19T09:41:33.170Z,6.75
2022-12-19T09:42:39.295Z,6.78
2022-12-19T09:43:40.991Z,6.79
2022-12-19T09:44:34.157Z,6.81
2022-12-19T09:45:33.254Z,6.79
2022-12-19T09:46:33.145Z,6.82
2022-12-19T09:47:33.141Z,6.82
2022-12-19T09:48:33.097Z,6.83
2022-12-19T09:49:33.078Z,6.85
2022-12-19T09:50:33.091Z,6.82
2022-12-19T09:51:33.045Z,6.85
2022-12-19T09:52:34.739Z,6.86
2022-12-19T09:53:33.028Z,6.89
2022-12-19T09:54:33.062Z,6.89
2022-12-19T09:55:33.003Z,6.92
2022-12-19T09:56:39.434Z,6.96
2022-12-19T09:57:34.026Z,6.99
2022-12-19T09:58:32.980Z,6.99
2022-12-19T09:59:41.225Z,7.01
2022-12-19T10:00:34.000Z,7.01
2022-12-19T10:01:33.127Z,7.03
2022-12-19T10:02:33.118Z,7.04
2022-12-19T10:03:38.742Z,7.04
2022-12-19T10:04:33.909Z,7.04
2022-12-19T10:06:44.080Z,7.06
2022-12-19T10:07:22.103Z,7.07
2022-12-19T10:08:01.298Z,7.10
2022-12-19T10:08:35.894Z,7.13
2022-12-19T10:11:52.917Z,7.13
2022-12-19T10:12:38.706Z,7.19
2022-12-19T10:12:40.926Z,7.15
2022-12-19T10:12:45.484Z,7.21
2022-12-19T10:13:33.811Z,7.22
2022-12-19T10:14:40.559Z,7.22
2022-12-19T10:15:32.826Z,7.25
2022-12-19T10:16:32.841Z,7.25
2022-12-19T10:17:32.809Z,7.28
2022-12-19T10:18:33.021Z,7.28
2022-12-19T10:19:32.728Z,7.31
2022-12-19T10:20:32.736Z,7.29
2022-12-19T10:21:59.526Z,7.34
2022-12-19T10:22:33.742Z,7.36
2022-12-19T10:23:32.696Z,7.36
2022-12-19T10:24:35.094Z,7.39
2022-12-19T10:25:32.681Z,7.39
2022-12-19T10:26:32.678Z,7.40
2022-12-19T10:27:32.651Z,7.43
2022-12-19T10:28:32.737Z,7.43
2022-12-19T10:29:32.688Z,7.44
2022-12-19T10:30:32.623Z,7.47
2022-12-19T10:31:32.648Z,7.47
2022-12-19T10:32:32.600Z,7.47
2022-12-19T10:33:32.585Z,7.49
2022-12-19T10:34:32.616Z,7.50
2022-12-19T10:35:33.557Z,7.55
2022-12-19T10:37:04.329Z,7.55
2022-12-19T10:37:43.594Z,7.55
2022-12-19T10:38:33.529Z,7.55
2022-12-19T10:39:32.515Z,7.55
2022-12-19T10:40:32.560Z,7.54
2022-12-19T10:41:32.494Z,7.55
2022-12-19T10:42:32.528Z,7.55
2022-12-19T10:43:35.608Z,7.57
2022-12-19T10:44:33.464Z,7.57
2022-12-19T10:45:32.456Z,7.55
2022-12-19T10:46:32.481Z,7.57
2022-12-19T10:47:32.440Z,7.58
2022-12-19T10:48:32.528Z,7.60
2022-12-19T10:49:32.423Z,7.61
2022-12-19T10:50:32.484Z,7.64
2022-12-19T10:51:32.479Z,7.62
2022-12-19T10:52:32.382Z,7.64
2022-12-19T10:53:32.365Z,7.64
2022-12-19T10:54:35.244Z,7.66
2022-12-19T10:55:32.383Z,7.68
2022-12-19T10:56:37.403Z,7.69
2022-12-19T10:57:33.376Z,7.71
2022-12-19T10:58:32.330Z,7.73
2022-12-19T10:59:32.318Z,7.74
2022-12-19T11:00:33.131Z,7.76
2022-12-19T11:01:32.418Z,7.76
2022-12-19T11:02:32.390Z,7.76
2022-12-19T11:03:32.389Z,7.78
2022-12-19T11:04:32.360Z,7.80
2022-12-19T11:05:32.274Z,7.81
2022-12-19T11:06:32.253Z,7.84
2022-12-19T11:07:32.258Z,7.84
2022-12-19T11:08:32.413Z,7.88
2022-12-19T11:09:32.205Z,7.92
2022-12-19T11:11:26.648Z,7.94
2022-12-19T11:13:30.988Z,7.96
2022-12-19T11:16:09.545Z,7.96
2022-12-19T11:17:00.326Z,7.98
2022-12-19T11:17:47.587Z,7.96
2022-12-19T11:19:37.859Z,7.99
2022-12-19T11:22:11.442Z,8.02
2022-12-19T11:25:05.095Z,8.04
2022-12-19T11:29:27.285Z,8.05
2022-12-19T11:29:37.048Z,8.04
2022-12-19T11:29:38.396Z,8.05
2022-12-19T11:29:38.522Z,8.04
2022-12-19T11:29:42.410Z,8.06
2022-12-19T11:29:45.691Z,8.06
2022-12-19T11:30:25.887Z,8.09
2022-12-19T11:30:38.647Z,8.09
2022-12-19T11:30:46.605Z,8.12
2022-12-19T11:30:48.173Z,8.10
2022-12-19T11:30:49.023Z,8.09
2022-12-19T11:31:58.431Z,8.12
2022-12-19T11:32:01.682Z,8.13
2022-12-19T11:32:41.241Z,8.14
2022-12-19T11:33:33.083Z,8.13
2022-12-19T11:34:31.952Z,8.16
2022-12-19T11:35:37.096Z,8.17
2022-12-19T11:36:32.964Z,8.17
2022-12-19T11:37:31.893Z,8.19
2022-12-19T11:38:31.882Z,8.20
2022-12-19T11:39:31.891Z,8.21
2022-12-19T11:40:31.911Z,8.23
2022-12-19T11:41:31.862Z,8.24
2022-12-19T11:42:33.451Z,8.24
2022-12-19T11:43:47.392Z,8.29
2022-12-19T11:44:32.849Z,8.29
2022-12-19T11:45:31.836Z,8.29
2022-12-19T11:46:31.814Z,8.29
2022-12-19T11:47:31.801Z,8.29
2022-12-19T11:48:31.799Z,8.31
2022-12-19T11:49:31.775Z,8.31
2022-12-19T11:50:31.782Z,8.28
2022-12-19T11:51:31.750Z,8.29
2022-12-19T11:53:33.081Z,8.28
2022-12-19T11:54:31.791Z,8.29
2022-12-19T11:55:31.715Z,8.29
2022-12-19T11:56:31.698Z,8.29
2022-12-19T11:57:31.704Z,8.28
2022-12-19T11:58:31.712Z,8.31
2022-12-19T11:59:31.683Z,8.28
2022-12-19T12:00:31.701Z,8.26
2022-12-19T12:01:31.703Z,8.26
2022-12-19T12:02:31.641Z,8.26
2022-12-19T12:03:31.706Z,8.26
2022-12-19T12:04:33.348Z,8.29
2022-12-19T12:05:31.611Z,8.29
2022-12-19T12:06:31.866Z,8.29
2022-12-19T12:08:55.213Z,8.29
2022-12-19T12:11:44.005Z,8.29
2022-12-19T12:13:27.070Z,8.31
2022-12-19T12:14:05.901Z,8.32
2022-12-19T12:16:44.045Z,8.29
2022-12-19T12:20:31.240Z,8.29
2022-12-19T12:21:32.607Z,8.29
2022-12-19T12:21:44.149Z,8.28
2022-12-19T12:24:00.119Z,8.29
2022-12-19T12:28:55.259Z,8.29
2022-12-19T12:30:59.799Z,8.31
2022-12-19T12:31:02.721Z,8.29
2022-12-19T12:31:05.559Z,8.29
2022-12-19T12:31:08.710Z,8.32
2022-12-19T12:31:15.525Z,8.31
2022-12-19T12:31:21.569Z,8.31
2022-12-19T12:31:26.820Z,8.32
2022-12-19T12:31:41.323Z,8.34
2022-12-19T12:31:41.329Z,8.35
2022-12-19T12:31:45.492Z,8.32
2022-12-19T12:31:57.752Z,8.32
2022-12-19T12:32:02.053Z,8.32
2022-12-19T12:32:06.756Z,8.34
2022-12-19T12:35:07.334Z,8.34
2022-12-19T12:35:30.229Z,8.34
2022-12-19T12:35:34.428Z,8.34
2022-12-19T12:35:47.064Z,8.34
2022-12-19T12:35:52.359Z,8.35
2022-12-19T12:38:33.045Z,8.39
2022-12-19T12:39:33.813Z,8.42
2022-12-19T12:40:31.282Z,8.46
2022-12-19T12:41:33.867Z,8.47
2022-12-19T12:42:31.192Z,8.49
2022-12-19T12:43:31.239Z,8.50
2022-12-19T12:44:32.775Z,8.53
2022-12-19T12:45:31.254Z,8.53
2022-12-19T12:46:31.184Z,8.56
2022-12-19T12:47:31.148Z,8.56
2022-12-19T12:48:31.557Z,8.56
2022-12-19T12:49:31.161Z,8.56
2022-12-19T12:50:31.138Z,8.57
2022-12-19T12:51:31.128Z,8.59
2022-12-19T12:52:31.090Z,8.59
2022-12-19T12:53:31.091Z,8.57
2022-12-19T12:54:31.266Z,8.59
2022-12-19T12:55:31.058Z,8.57
2022-12-19T12:56:31.051Z,8.56
2022-12-19T12:57:31.290Z,8.57
2022-12-19T12:58:31.024Z,8.59
2022-12-19T12:59:31.041Z,8.60
2022-12-19T13:00:32.807Z,8.60
2022-12-19T13:01:31.159Z,8.62
2022-12-19T13:02:31.060Z,8.62
2022-12-19T13:03:31.080Z,8.63
2022-12-19T13:04:30.956Z,8.65
2022-12-19T13:05:30.960Z,8.68
2022-12-19T13:06:30.949Z,8.70
2022-12-19T13:07:31.181Z,8.72
2022-12-19T13:08:31.033Z,8.72
2022-12-19T13:09:31.028Z,8.72
2022-12-19T13:10:30.927Z,8.71
2022-12-19T13:11:30.896Z,8.72
2022-12-19T13:12:30.875Z,8.74
2022-12-19T13:13:38.030Z,8.75
2022-12-19T13:14:30.989Z,8.80
2022-12-19T13:15:33.109Z,8.85
2022-12-19T13:16:30.946Z,8.85
2022-12-19T13:17:30.921Z,8.83
2022-12-19T13:18:30.927Z,8.83
2022-12-19T13:19:31.913Z,8.83
2022-12-19T13:20:30.797Z,8.88
2022-12-19T13:21:30.777Z,8.86
2022-12-19T13:22:30.758Z,8.88
2022-12-19T13:23:32.667Z,8.90
2022-12-19T13:24:30.776Z,8.90